Time;durP1;ratioP1;P1;durP2;ratioP2;P2;SDS_P1;SDS_P2;PMS_P1;PMS_P2;Temp;Humidity;BMP_temperature;BMP_pressure;BME280_temperature;BME280_humidity;BME280_pressure;Samples;Min_cycle;Max_cycle;Signal;HPM_P1;HPM_P2
2021/05/15 00:01:11;;;;;;;1.83;1.73;;;9.10;99.90;;;;;;474878;250;27909;-69
2021/05/15 00:03:12;;;;;;;1.63;1.43;;;9.20;99.90;;;;;;477261;249;27998;-69
2021/05/15 00:05:13;;;;;;;1.57;1.47;;;9.10;99.90;;;;;;474875;250;27921;-69
2021/05/15 00:07:14;;;;;;;1.70;1.60;;;9.10;99.90;;;;;;477282;249;27682;-69
2021/05/15 00:09:16;;;;;;;1.57;1.47;;;9.10;99.90;;;;;;474860;250;27929;-69
2021/05/15 00:11:17;;;;;;;1.50;1.40;;;9.10;99.90;;;;;;477281;249;28463;-69
2021/05/15 00:13:18;;;;;;;1.70;1.60;;;9.00;99.90;;;;;;474875;250;28340;-70
2021/05/15 00:15:19;;;;;;;1.90;1.70;;;8.90;99.90;;;;;;477277;249;28774;-69
2021/05/15 00:17:21;;;;;;;1.27;1.27;;;8.90;99.90;;;;;;474876;250;28423;-69
2021/05/15 00:19:22;;;;;;;1.90;1.70;;;9.00;99.90;;;;;;477271;249;28400;-70
2021/05/15 00:21:23;;;;;;;1.73;1.63;;;8.90;99.90;;;;;;474872;250;27772;-69
2021/05/15 00:23:24;;;;;;;1.60;1.50;;;9.00;99.90;;;;;;477279;249;27875;-70
2021/05/15 00:25:26;;;;;;;2.40;1.77;;;9.00;99.90;;;;;;474869;250;27924;-69
2021/05/15 00:27:27;;;;;;;1.83;1.73;;;9.00;99.90;;;;;;477278;249;27551;-70
2021/05/15 00:29:28;;;;;;;2.10;1.90;;;8.90;99.90;;;;;;474868;250;27669;-70
2021/05/15 00:31:29;;;;;;;1.90;1.80;;;8.90;99.90;;;;;;477273;249;27662;-69
2021/05/15 00:33:31;;;;;;;1.80;1.70;;;8.90;99.90;;;;;;474870;250;27772;-70
2021/05/15 00:35:32;;;;;;;1.63;1.53;;;8.90;99.90;;;;;;477279;249;27891;-69
2021/05/15 00:37:33;;;;;;;1.80;1.70;;;8.90;99.90;;;;;;474884;250;27513;-69
2021/05/15 00:39:34;;;;;;;1.37;1.37;;;9.00;99.90;;;;;;477274;249;27887;-72
2021/05/15 00:41:37;;;;;;;2.20;1.87;;;8.90;99.90;;;;;;474870;250;27974;-70
2021/05/15 00:43:44;;;;;;;1.57;1.47;;;9.00;99.90;;;;;;477202;249;28007;-69
2021/05/15 00:45:38;;;;;;;1.70;1.60;;;9.00;99.90;;;;;;474674;250;27908;-69
2021/05/15 00:47:39;;;;;;;1.60;1.50;;;9.00;99.90;;;;;;477283;249;27577;-69
2021/05/15 00:49:41;;;;;;;1.80;1.50;;;9.00;99.90;;;;;;474862;250;28457;-71
2021/05/15 00:51:42;;;;;;;1.73;1.63;;;9.00;99.90;;;;;;477279;249;28460;-69
2021/05/15 00:53:43;;;;;;;2.30;2.03;;;9.00;99.90;;;;;;474867;250;28392;-69
2021/05/15 00:55:44;;;;;;;2.40;2.23;;;9.00;99.90;;;;;;477277;249;27998;-69
2021/05/15 00:57:45;;;;;;;3.40;2.07;;;8.90;99.90;;;;;;474874;250;27936;-69
2021/05/15 00:59:47;;;;;;;1.70;1.60;;;9.00;99.90;;;;;;477276;249;27992;-71
2021/05/15 01:01:48;;;;;;;2.70;2.10;;;9.00;99.90;;;;;;474880;250;27901;-70
2021/05/15 01:03:49;;;;;;;1.80;1.70;;;9.10;99.90;;;;;;477278;249;28114;-71
2021/05/15 01:05:51;;;;;;;1.73;1.60;;;9.00;99.90;;;;;;474861;250;27758;-70
2021/05/15 01:07:52;;;;;;;3.37;2.30;;;9.10;99.90;;;;;;477276;249;27995;-69
2021/05/15 01:09:53;;;;;;;2.00;1.90;;;9.00;99.90;;;;;;474875;250;27886;-71
2021/05/15 01:11:54;;;;;;;2.50;2.30;;;9.10;99.90;;;;;;477278;249;27759;-70
2021/05/15 01:14:02;;;;;;;2.20;1.70;;;9.10;99.90;;;;;;474873;250;27532;-69
2021/05/15 01:16:00;;;;;;;2.67;2.03;;;9.10;99.90;;;;;;477199;249;28019;-70
2021/05/15 01:18:01;;;;;;;1.73;1.63;;;9.10;99.90;;;;;;474880;250;27556;-70
2021/05/15 01:20:02;;;;;;;2.33;2.13;;;9.10;99.90;;;;;;477275;249;27965;-70
2021/05/15 01:22:03;;;;;;;2.10;2.00;;;9.10;99.90;;;;;;474875;250;28028;-70
2021/05/15 01:24:05;;;;;;;4.50;2.10;;;9.20;99.90;;;;;;491853;241;27694;-69
2021/05/15 01:26:06;;;;;;;1.87;1.77;;;9.20;99.90;;;;;;493419;240;27931;-69
2021/05/15 01:28:07;;;;;;;2.40;2.20;;;9.20;99.90;;;;;;493425;240;27453;-70
2021/05/15 01:30:08;;;;;;;2.20;2.10;;;9.20;99.90;;;;;;493424;240;27608;-69
2021/05/15 01:32:10;;;;;;;2.40;2.20;;;9.10;99.90;;;;;;493415;241;27510;-70
2021/05/15 01:34:11;;;;;;;1.70;1.60;;;9.10;99.90;;;;;;493414;240;27933;-70
2021/05/15 01:36:12;;;;;;;2.90;2.57;;;9.10;99.90;;;;;;493419;240;28202;-71
2021/05/15 01:38:13;;;;;;;3.03;2.83;;;9.10;99.90;;;;;;493411;240;28157;-69
2021/05/15 01:40:15;;;;;;;3.00;2.40;;;9.10;99.90;;;;;;493415;241;27942;-70
2021/05/15 01:42:16;;;;;;;2.97;2.30;;;9.20;99.90;;;;;;493414;241;28536;-70
2021/05/15 01:44:17;;;;;;;2.83;2.63;;;9.20;99.90;;;;;;493407;241;28447;-70
2021/05/15 01:46:18;;;;;;;3.10;2.43;;;9.20;99.90;;;;;;493411;241;27969;-70
2021/05/15 01:48:20;;;;;;;3.10;2.80;;;9.20;99.90;;;;;;492655;240;27782;-69
2021/05/15 01:50:21;;;;;;;3.30;3.00;;;9.20;99.90;;;;;;490648;241;27723;-69
2021/05/15 01:52:22;;;;;;;2.87;2.53;;;9.20;99.90;;;;;;490663;241;27845;-69
2021/05/15 01:54:23;;;;;;;3.93;2.30;;;9.20;99.90;;;;;;490661;241;27975;-69
2021/05/15 01:56:25;;;;;;;2.33;2.13;;;9.20;99.90;;;;;;490661;241;27944;-70
2021/05/15 01:58:26;;;;;;;3.90;2.83;;;9.20;99.90;;;;;;490671;241;27606;-70
2021/05/15 02:00:28;;;;;;;3.70;2.40;;;9.20;99.90;;;;;;490675;241;28050;-70
2021/05/15 02:02:28;;;;;;;2.40;2.30;;;9.20;99.90;;;;;;490663;241;28132;-69
2021/05/15 02:04:30;;;;;;;2.30;2.10;;;9.20;99.90;;;;;;490673;241;28083;-69
2021/05/15 02:06:31;;;;;;;2.60;2.40;;;9.30;99.90;;;;;;490697;241;27911;-69
2021/05/15 02:08:32;;;;;;;3.53;2.80;;;9.30;99.90;;;;;;490701;241;27581;-70
2021/05/15 02:10:33;;;;;;;2.30;2.20;;;9.30;99.90;;;;;;490696;241;27967;-69
2021/05/15 02:12:35;;;;;;;3.03;2.80;;;9.20;99.90;;;;;;490721;241;27964;-69
2021/05/15 02:14:36;;;;;;;2.70;2.50;;;9.20;99.90;;;;;;490712;241;28423;-69
2021/05/15 02:16:37;;;;;;;3.30;2.97;;;9.20;99.90;;;;;;490700;241;28488;-70
2021/05/15 02:18:38;;;;;;;2.90;2.70;;;9.20;99.90;;;;;;490691;241;28176;-69
2021/05/15 02:20:40;;;;;;;2.97;2.67;;;9.20;99.90;;;;;;490710;241;28444;-70
2021/05/15 02:22:41;;;;;;;3.80;3.50;;;9.20;99.90;;;;;;490699;241;28787;-69
2021/05/15 02:24:42;;;;;;;3.53;2.67;;;9.10;99.90;;;;;;490686;241;27946;-69
2021/05/15 02:26:43;;;;;;;3.47;3.17;;;9.10;99.90;;;;;;490708;241;27705;-69
2021/05/15 02:28:46;;;;;;;3.50;3.20;;;9.20;99.90;;;;;;490696;241;28063;-69
2021/05/15 02:30:46;;;;;;;3.30;3.10;;;9.20;99.90;;;;;;490669;241;28015;-70
2021/05/15 02:32:47;;;;;;;3.10;2.90;;;9.20;99.90;;;;;;490684;241;27956;-69
2021/05/15 02:34:48;;;;;;;3.40;3.10;;;9.30;99.90;;;;;;490701;241;27715;-70
2021/05/15 02:36:50;;;;;;;3.27;2.77;;;9.30;99.90;;;;;;490687;241;27918;-70
2021/05/15 02:38:51;;;;;;;3.37;3.07;;;9.30;99.90;;;;;;490697;241;27941;-69
2021/05/15 02:40:56;;;;;;;3.10;2.90;;;9.30;99.90;;;;;;490691;241;27915;-70
2021/05/15 02:42:56;;;;;;;4.17;3.40;;;9.30;99.90;;;;;;490677;241;28398;-68
2021/05/15 02:44:58;;;;;;;3.10;2.90;;;9.20;99.90;;;;;;490700;241;28786;-69
2021/05/15 02:46:59;;;;;;;6.50;3.50;;;9.20;99.90;;;;;;490691;241;28492;-70
2021/05/15 02:49:00;;;;;;;6.43;3.40;;;9.20;99.90;;;;;;490692;241;27922;-70
2021/05/15 02:51:01;;;;;;;8.83;3.33;;;9.20;99.90;;;;;;490691;241;27675;-70
2021/05/15 02:53:03;;;;;;;3.40;2.97;;;9.20;99.90;;;;;;490699;241;27924;-69
2021/05/15 02:55:04;;;;;;;3.80;3.50;;;9.20;99.90;;;;;;490697;241;27676;-69
2021/05/15 02:57:05;;;;;;;4.30;2.80;;;9.20;99.90;;;;;;490702;241;27819;-70
2021/05/15 02:59:06;;;;;;;3.00;2.80;;;9.20;99.90;;;;;;490701;241;27829;-70
2021/05/15 03:01:08;;;;;;;2.50;2.30;;;9.30;99.90;;;;;;490699;241;27945;-69
2021/05/15 03:03:09;;;;;;;3.00;2.80;;;9.30;99.90;;;;;;490698;241;27975;-70
2021/05/15 03:05:10;;;;;;;3.30;3.10;;;9.30;99.90;;;;;;490674;241;27920;-69
2021/05/15 03:07:11;;;;;;;8.10;3.30;;;9.20;99.90;;;;;;490686;241;28021;-69
2021/05/15 03:09:13;;;;;;;4.23;3.93;;;9.20;99.90;;;;;;490685;241;27948;-70
2021/05/15 03:11:14;;;;;;;2.90;2.70;;;9.20;99.90;;;;;;490698;241;28073;-69
2021/05/15 03:13:15;;;;;;;3.13;2.93;;;9.30;99.90;;;;;;490722;241;27967;-69
2021/05/15 03:15:16;;;;;;;3.67;3.37;;;9.20;99.90;;;;;;490710;241;28198;-70
2021/05/15 03:17:18;;;;;;;4.27;2.83;;;9.20;99.90;;;;;;490719;241;28384;-69
2021/05/15 03:19:19;;;;;;;2.87;2.67;;;9.20;99.90;;;;;;490723;241;28304;-70
2021/05/15 03:21:20;;;;;;;5.27;3.60;;;9.20;99.90;;;;;;490706;241;28141;-70
2021/05/15 03:23:21;;;;;;;3.37;3.07;;;9.20;99.90;;;;;;490706;241;28455;-70
2021/05/15 03:25:23;;;;;;;3.80;3.47;;;9.20;99.90;;;;;;490717;241;27944;-70
2021/05/15 03:27:24;;;;;;;4.20;3.80;;;9.20;99.90;;;;;;490724;241;28035;-70
2021/05/15 03:29:25;;;;;;;3.57;3.30;;;9.10;99.90;;;;;;490732;241;27967;-71
2021/05/15 03:31:26;;;;;;;6.30;3.70;;;9.20;99.90;;;;;;490718;241;28152;-70
2021/05/15 03:33:28;;;;;;;3.53;3.23;;;9.20;99.90;;;;;;490715;241;27965;-70
2021/05/15 03:35:31;;;;;;;3.90;3.60;;;9.20;99.90;;;;;;490713;241;27471;-70
2021/05/15 03:37:30;;;;;;;3.90;3.60;;;9.10;99.90;;;;;;490670;242;27845;-69
2021/05/15 03:39:31;;;;;;;5.43;4.50;;;9.20;99.90;;;;;;490717;241;27976;-69
2021/05/15 03:41:32;;;;;;;3.37;3.17;;;9.10;99.90;;;;;;490718;241;28069;-69
2021/05/15 03:43:34;;;;;;;6.07;3.60;;;9.10;99.90;;;;;;490716;241;28172;-70
2021/05/15 03:45:35;;;;;;;3.50;3.20;;;9.10;99.90;;;;;;490689;241;27975;-69
2021/05/15 03:47:36;;;;;;;3.47;3.27;;;9.10;99.90;;;;;;490706;241;27697;-71
2021/05/15 03:49:37;;;;;;;4.87;3.23;;;9.10;99.90;;;;;;490719;241;27823;-70
2021/05/15 03:51:39;;;;;;;3.83;3.53;;;9.10;99.90;;;;;;490705;241;27956;-67
2021/05/15 03:53:40;;;;;;;4.17;3.77;;;9.10;99.90;;;;;;490697;241;28502;-69
2021/05/15 03:55:41;;;;;;;4.27;3.97;;;9.20;99.90;;;;;;490705;241;28543;-69
2021/05/15 03:57:42;;;;;;;3.63;3.43;;;9.10;99.90;;;;;;490742;241;28441;-69
2021/05/15 03:59:44;;;;;;;3.63;3.33;;;9.20;99.90;;;;;;490704;241;29890;-69
2021/05/15 04:01:48;;;;;;;4.47;3.83;;;9.20;99.90;;;;;;490707;241;28485;-69
2021/05/15 04:03:46;;;;;;;4.10;3.70;;;9.10;99.90;;;;;;490594;242;27947;-71
2021/05/15 04:05:47;;;;;;;5.63;3.30;;;9.10;99.90;;;;;;490704;241;27953;-69
2021/05/15 04:07:49;;;;;;;4.83;3.93;;;9.10;99.90;;;;;;490699;241;27971;-70
2021/05/15 04:09:50;;;;;;;3.73;3.43;;;9.20;99.90;;;;;;490715;241;27588;-69
2021/05/15 04:11:51;;;;;;;3.63;3.33;;;9.20;99.90;;;;;;490696;241;27599;-70
2021/05/15 04:13:57;;;;;;;4.80;3.80;;;9.20;99.90;;;;;;490720;241;28039;-71
2021/05/15 04:15:58;;;;;;;3.63;3.30;;;9.20;99.90;;;;;;490553;242;27829;-69
2021/05/15 04:17:55;;;;;;;8.00;4.40;;;9.20;99.90;;;;;;490583;242;27964;-70
2021/05/15 04:19:56;;;;;;;3.70;3.40;;;9.20;99.90;;;;;;490721;241;27972;-69
2021/05/15 04:21:57;;;;;;;4.43;4.03;;;9.20;99.90;;;;;;490698;241;27943;-69
2021/05/15 04:23:59;;;;;;;3.93;3.10;;;9.20;99.90;;;;;;490709;241;27967;-70
2021/05/15 04:26:00;;;;;;;3.87;3.57;;;9.20;99.90;;;;;;490711;241;28092;-69
2021/05/15 04:28:01;;;;;;;3.63;3.33;;;9.20;99.90;;;;;;490721;241;27620;-69
2021/05/15 04:30:02;;;;;;;3.60;3.30;;;9.20;99.90;;;;;;490702;241;28510;-70
2021/05/15 04:32:04;;;;;;;3.93;3.63;;;9.30;99.90;;;;;;490701;241;28376;-70
2021/05/15 04:34:05;;;;;;;5.00;4.30;;;9.20;99.90;;;;;;490702;241;28620;-70
2021/05/15 04:36:06;;;;;;;3.87;3.10;;;9.20;99.90;;;;;;490707;241;28376;-70
2021/05/15 04:38:07;;;;;;;3.57;3.33;;;9.30;99.90;;;;;;490704;241;28590;-69
2021/05/15 04:40:09;;;;;;;3.57;3.03;;;9.30;99.90;;;;;;490701;241;28670;-69
2021/05/15 04:42:10;;;;;;;3.50;3.10;;;9.40;99.90;;;;;;490695;241;28145;-69
2021/05/15 04:44:11;;;;;;;3.50;3.20;;;9.40;99.90;;;;;;490710;241;27816;-71
2021/05/15 04:46:12;;;;;;;8.10;3.37;;;9.40;99.90;;;;;;490713;241;27962;-70
2021/05/15 04:48:14;;;;;;;5.23;4.50;;;9.40;99.90;;;;;;490702;241;27873;-71
2021/05/15 04:50:15;;;;;;;3.67;3.33;;;9.40;99.90;;;;;;490507;241;27693;-69
2021/05/15 04:52:16;;;;;;;5.30;4.80;;;9.40;99.90;;;;;;490720;241;28041;-69
2021/05/15 04:54:17;;;;;;;4.73;3.90;;;9.40;99.90;;;;;;490706;241;28089;-69
2021/05/15 04:56:19;;;;;;;4.30;3.90;;;9.30;99.90;;;;;;490718;241;27875;-69
2021/05/15 04:58:20;;;;;;;4.20;3.90;;;9.40;99.90;;;;;;490719;241;27554;-69
2021/05/15 05:00:21;;;;;;;8.50;3.60;;;9.40;99.90;;;;;;490711;241;27824;-69
2021/05/15 05:02:22;;;;;;;5.37;4.27;;;9.40;99.90;;;;;;490701;241;28076;-69
2021/05/15 05:04:24;;;;;;;6.33;3.90;;;9.40;99.90;;;;;;490710;241;27721;-69
2021/05/15 05:06:25;;;;;;;3.70;3.40;;;9.50;99.90;;;;;;490699;241;27945;-69
2021/05/15 05:08:26;;;;;;;4.20;3.80;;;9.50;99.90;;;;;;490711;241;28336;-70
2021/05/15 05:10:28;;;;;;;4.70;3.37;;;9.50;99.90;;;;;;490718;241;28455;-69
2021/05/15 05:12:29;;;;;;;3.90;3.53;;;9.50;99.90;;;;;;490703;241;28191;-69
2021/05/15 05:14:30;;;;;;;8.00;3.67;;;9.50;99.90;;;;;;490698;241;28907;-69
2021/05/15 05:16:31;;;;;;;4.20;3.80;;;9.50;99.90;;;;;;490695;241;28076;-69
2021/05/15 05:18:32;;;;;;;5.63;4.30;;;9.50;99.90;;;;;;490696;241;27953;-69
2021/05/15 05:20:34;;;;;;;4.37;4.07;;;9.40;99.90;;;;;;490716;241;27958;-69
2021/05/15 05:22:35;;;;;;;4.80;4.27;;;9.50;99.90;;;;;;490699;241;27916;-70
2021/05/15 05:24:36;;;;;;;4.07;3.77;;;9.50;99.90;;;;;;490714;241;28049;-69
2021/05/15 05:26:38;;;;;;;8.53;5.70;;;9.50;99.90;;;;;;490704;241;28044;-70
2021/05/15 05:28:39;;;;;;;4.27;3.60;;;9.60;99.90;;;;;;490690;241;27982;-70
2021/05/15 05:30:40;;;;;;;4.50;4.10;;;9.60;99.90;;;;;;490695;241;27701;-69
2021/05/15 05:32:41;;;;;;;5.40;4.90;;;9.60;99.90;;;;;;490710;241;27947;-69
2021/05/15 05:34:43;;;;;;;5.03;4.53;;;9.60;99.90;;;;;;490694;241;27827;-69
2021/05/15 05:36:44;;;;;;;4.70;4.03;;;9.50;99.90;;;;;;490699;241;27961;-69
2021/05/15 05:38:45;;;;;;;3.77;3.30;;;9.50;99.90;;;;;;490718;241;27969;-70
2021/05/15 05:40:46;;;;;;;4.97;4.40;;;9.50;99.90;;;;;;490692;241;28074;-68
2021/05/15 05:42:47;;;;;;;5.37;3.83;;;9.50;99.90;;;;;;490716;241;28178;-69
2021/05/15 05:44:49;;;;;;;4.30;3.80;;;9.50;99.90;;;;;;490693;241;28099;-69
2021/05/15 05:46:50;;;;;;;4.37;3.97;;;9.50;99.90;;;;;;490704;241;28500;-69
2021/05/15 05:48:51;;;;;;;4.43;4.00;;;9.60;99.90;;;;;;490689;241;28577;-71
2021/05/15 05:50:52;;;;;;;4.60;4.20;;;9.60;99.90;;;;;;490700;241;28191;-69
2021/05/15 05:52:55;;;;;;;4.30;3.90;;;9.60;99.90;;;;;;490715;241;28404;-69
2021/05/15 05:54:55;;;;;;;6.83;5.00;;;9.60;99.90;;;;;;490652;242;28558;-69
2021/05/15 05:56:56;;;;;;;5.33;4.93;;;9.60;99.90;;;;;;490706;241;27832;-69
2021/05/15 05:58:57;;;;;;;7.10;5.70;;;9.50;99.90;;;;;;490707;241;28088;-70
2021/05/15 06:00:59;;;;;;;8.03;6.10;;;9.50;99.90;;;;;;490680;241;27980;-69
2021/05/15 06:03:00;;;;;;;6.17;5.00;;;9.50;99.90;;;;;;490703;241;27950;-69
2021/05/15 06:05:02;;;;;;;7.57;4.87;;;9.50;99.90;;;;;;490689;241;27931;-69
2021/05/15 06:07:02;;;;;;;5.17;4.67;;;9.40;99.90;;;;;;490675;241;28054;-69
2021/05/15 06:09:04;;;;;;;5.73;4.57;;;9.50;99.90;;;;;;490705;241;27701;-69
2021/05/15 06:11:05;;;;;;;4.50;4.10;;;9.50;99.90;;;;;;490699;241;28073;-69
2021/05/15 06:13:06;;;;;;;5.43;4.53;;;9.50;99.90;;;;;;490704;241;28053;-69
2021/05/15 06:15:07;;;;;;;4.30;3.90;;;9.60;99.90;;;;;;490695;241;27828;-69
2021/05/15 06:17:09;;;;;;;3.73;3.47;;;9.70;99.90;;;;;;490681;241;27755;-69
2021/05/15 06:19:10;;;;;;;4.90;4.50;;;9.70;99.90;;;;;;490697;241;28059;-69
2021/05/15 06:21:11;;;;;;;5.93;5.33;;;9.70;99.90;;;;;;490703;241;27956;-69
2021/05/15 06:23:12;;;;;;;4.63;4.23;;;9.70;99.90;;;;;;490697;241;28025;-70
2021/05/15 06:25:14;;;;;;;4.53;3.63;;;9.60;99.90;;;;;;490685;241;28190;-69
2021/05/15 06:27:15;;;;;;;5.67;5.00;;;9.70;99.90;;;;;;490661;241;28349;-70
2021/05/15 06:29:16;;;;;;;4.80;4.30;;;9.70;99.90;;;;;;490668;241;29004;-69
2021/05/15 06:31:17;;;;;;;6.87;4.87;;;9.70;99.90;;;;;;490643;241;28497;-69
2021/05/15 06:33:19;;;;;;;5.80;3.50;;;9.70;99.90;;;;;;490653;241;28524;-69
2021/05/15 06:35:20;;;;;;;4.67;3.77;;;9.60;99.90;;;;;;490669;241;27828;-69
2021/05/15 06:37:21;;;;;;;4.60;3.93;;;9.60;99.90;;;;;;490691;241;28155;-69
2021/05/15 06:39:22;;;;;;;5.07;3.60;;;9.60;99.90;;;;;;490705;241;27966;-69
2021/05/15 06:41:24;;;;;;;4.73;3.80;;;9.50;99.90;;;;;;490705;241;28158;-69
2021/05/15 06:43:25;;;;;;;4.63;4.13;;;9.50;99.90;;;;;;490684;241;27958;-69
2021/05/15 06:45:26;;;;;;;3.13;2.93;;;9.50;99.90;;;;;;490683;241;27740;-69
2021/05/15 06:47:27;;;;;;;4.27;3.87;;;9.40;99.90;;;;;;490698;241;28064;-69
2021/05/15 06:49:29;;;;;;;2.90;2.70;;;9.50;99.90;;;;;;490720;241;27837;-69
2021/05/15 06:51:30;;;;;;;3.70;3.17;;;9.50;99.90;;;;;;490704;241;28010;-68
2021/05/15 06:53:31;;;;;;;3.80;3.50;;;9.50;99.90;;;;;;490750;241;27955;-70
2021/05/15 06:55:32;;;;;;;5.07;4.00;;;9.60;99.90;;;;;;490724;241;27849;-69
2021/05/15 06:57:34;;;;;;;3.67;3.27;;;9.60;99.90;;;;;;490724;241;28061;-69
2021/05/15 06:59:35;;;;;;;3.33;3.03;;;9.60;99.90;;;;;;490718;241;27946;-69
2021/05/15 07:01:36;;;;;;;3.17;2.87;;;9.70;99.90;;;;;;490719;241;27885;-69
2021/05/15 07:03:37;;;;;;;4.10;3.80;;;9.60;99.90;;;;;;490719;241;28377;-69
2021/05/15 07:05:39;;;;;;;2.80;2.60;;;9.60;99.90;;;;;;490723;241;28483;-69
2021/05/15 07:07:40;;;;;;;4.73;2.80;;;9.70;99.90;;;;;;490718;241;28416;-69
2021/05/15 07:09:41;;;;;;;3.67;3.47;;;9.70;99.90;;;;;;490717;241;28267;-69
2021/05/15 07:11:42;;;;;;;3.90;2.90;;;9.70;99.90;;;;;;490724;241;28192;-68
2021/05/15 07:13:44;;;;;;;4.07;2.80;;;9.70;99.90;;;;;;490726;241;28095;-70
2021/05/15 07:15:45;;;;;;;2.80;2.57;;;9.80;99.90;;;;;;490705;241;27804;-69
2021/05/15 07:17:46;;;;;;;4.40;2.90;;;9.80;99.90;;;;;;490712;241;27956;-69
2021/05/15 07:19:47;;;;;;;3.40;2.70;;;9.80;99.90;;;;;;490735;241;28040;-68
2021/05/15 07:21:49;;;;;;;5.90;2.80;;;9.90;99.90;;;;;;490719;241;27953;-69
2021/05/15 07:23:50;;;;;;;3.27;3.07;;;9.90;99.90;;;;;;490717;240;28196;-71
2021/05/15 07:25:51;;;;;;;3.10;2.53;;;9.90;99.90;;;;;;490721;241;27951;-69
2021/05/15 07:27:52;;;;;;;3.30;3.07;;;9.90;99.90;;;;;;490715;241;28045;-69
2021/05/15 07:29:54;;;;;;;2.70;2.47;;;9.90;99.90;;;;;;497411;237;28138;-68
2021/05/15 07:31:55;;;;;;;3.23;2.90;;;9.90;99.90;;;;;;500405;238;28019;-68
2021/05/15 07:33:56;;;;;;;2.50;2.30;;;9.90;99.90;;;;;;500408;238;27920;-70
2021/05/15 07:35:57;;;;;;;4.00;3.10;;;9.90;99.90;;;;;;500405;238;27928;-68
2021/05/15 07:37:59;;;;;;;3.80;3.50;;;10.00;99.90;;;;;;500409;238;27951;-68
2021/05/15 07:40:00;;;;;;;6.00;3.47;;;10.00;99.90;;;;;;500396;238;28701;-68
2021/05/15 07:42:01;;;;;;;3.93;3.53;;;9.90;99.90;;;;;;500416;238;28345;-69
2021/05/15 07:44:02;;;;;;;4.60;3.43;;;10.00;99.90;;;;;;500379;238;28448;-69
2021/05/15 07:46:04;;;;;;;4.90;3.40;;;10.00;99.90;;;;;;500378;238;28496;-68
2021/05/15 07:48:05;;;;;;;3.63;2.83;;;9.90;99.90;;;;;;500403;238;27957;-69
2021/05/15 07:50:06;;;;;;;4.13;3.50;;;10.00;99.90;;;;;;500406;238;27943;-67
2021/05/15 07:52:07;;;;;;;4.20;3.80;;;9.90;99.90;;;;;;500416;238;27952;-67
2021/05/15 07:54:09;;;;;;;4.60;3.13;;;9.90;99.90;;;;;;500388;238;27716;-66
2021/05/15 07:56:10;;;;;;;3.30;3.00;;;9.80;99.90;;;;;;500413;238;27918;-67
2021/05/15 07:58:11;;;;;;;3.47;2.80;;;9.70;99.90;;;;;;500407;238;27950;-68
2021/05/15 08:00:14;;;;;;;4.47;3.03;;;9.70;99.90;;;;;;500411;238;27946;-68
2021/05/15 08:02:14;;;;;;;4.00;2.80;;;9.70;99.90;;;;;;500349;238;27946;-68
2021/05/15 08:04:15;;;;;;;3.57;3.27;;;9.70;99.90;;;;;;500409;238;28028;-68
2021/05/15 08:06:16;;;;;;;4.60;4.20;;;9.70;99.90;;;;;;500407;238;27934;-68
2021/05/15 08:08:18;;;;;;;6.67;3.50;;;9.70;99.90;;;;;;500404;238;27959;-69
2021/05/15 08:10:19;;;;;;;3.63;3.00;;;9.70;99.90;;;;;;500404;238;27938;-68
2021/05/15 08:12:20;;;;;;;4.13;3.37;;;9.60;99.90;;;;;;500410;238;28537;-67
2021/05/15 08:14:21;;;;;;;3.10;2.90;;;9.50;99.90;;;;;;500400;238;28488;-67
2021/05/15 08:16:22;;;;;;;6.80;3.40;;;9.50;99.90;;;;;;500392;238;28145;-67
2021/05/15 08:18:24;;;;;;;3.80;3.40;;;9.40;99.90;;;;;;500408;238;28030;-69
2021/05/15 08:20:25;;;;;;;3.07;2.20;;;9.40;99.90;;;;;;500371;238;28486;-67
2021/05/15 08:22:26;;;;;;;2.13;2.03;;;9.40;99.90;;;;;;500401;238;27997;-68
2021/05/15 08:24:27;;;;;;;2.30;2.17;;;9.40;99.90;;;;;;500266;237;28039;-68
2021/05/15 08:26:29;;;;;;;2.40;2.20;;;9.50;99.90;;;;;;500408;238;27899;-67
2021/05/15 08:28:30;;;;;;;2.27;2.07;;;9.50;99.90;;;;;;500398;238;27882;-68
2021/05/15 08:30:32;;;;;;;1.90;1.80;;;9.50;99.90;;;;;;500418;238;27911;-67
2021/05/15 08:32:33;;;;;;;2.73;2.07;;;9.40;99.90;;;;;;500394;238;28073;-68
2021/05/15 08:34:34;;;;;;;2.27;1.90;;;9.50;99.90;;;;;;500375;238;27827;-68
2021/05/15 08:36:35;;;;;;;5.70;1.77;;;9.50;99.90;;;;;;500420;238;27817;-69
2021/05/15 08:38:36;;;;;;;2.40;1.40;;;9.70;99.90;;;;;;500397;238;27979;-68
2021/05/15 08:40:37;;;;;;;4.73;1.67;;;9.70;99.90;;;;;;500414;238;27776;-69
2021/05/15 08:42:39;;;;;;;1.57;1.47;;;9.80;99.90;;;;;;500422;238;28012;-69
2021/05/15 08:44:40;;;;;;;1.47;1.40;;;9.80;99.90;;;;;;500369;238;27847;-69
2021/05/15 08:46:41;;;;;;;2.03;1.83;;;9.80;99.90;;;;;;500423;238;27938;-69
2021/05/15 08:48:42;;;;;;;2.00;1.40;;;9.80;99.90;;;;;;500414;238;27943;-68
2021/05/15 08:50:44;;;;;;;1.30;1.30;;;9.90;99.90;;;;;;500422;238;28516;-68
2021/05/15 08:52:45;;;;;;;1.40;1.40;;;10.10;99.90;;;;;;500411;238;28392;-69
2021/05/15 08:54:46;;;;;;;1.77;1.67;;;10.30;99.90;;;;;;500406;238;28152;-68
2021/05/15 08:56:48;;;;;;;2.17;1.70;;;10.60;99.90;;;;;;500413;238;28520;-69
2021/05/15 08:58:49;;;;;;;1.43;1.33;;;10.80;99.90;;;;;;500380;238;28177;-68
2021/05/15 09:00:50;;;;;;;1.80;1.70;;;11.10;99.90;;;;;;500401;238;28278;-68
2021/05/15 09:02:51;;;;;;;2.30;2.10;;;11.10;99.90;;;;;;500409;238;28151;-69
2021/05/15 09:04:52;;;;;;;1.40;1.40;;;11.20;99.90;;;;;;500400;238;28043;-69
2021/05/15 09:06:54;;;;;;;1.70;1.60;;;11.10;99.90;;;;;;500397;238;28504;-68
2021/05/15 09:08:55;;;;;;;2.07;1.87;;;11.10;99.90;;;;;;500397;238;28047;-68
2021/05/15 09:10:56;;;;;;;1.73;1.63;;;11.00;99.90;;;;;;500385;238;28346;-69
2021/05/15 09:12:57;;;;;;;2.10;1.90;;;10.80;99.90;;;;;;500395;238;28877;-71
2021/05/15 09:14:59;;;;;;;2.10;1.90;;;10.70;99.90;;;;;;500403;238;29233;-68
2021/05/15 09:17:00;;;;;;;2.77;2.30;;;10.60;99.90;;;;;;500376;238;28757;-70
2021/05/15 09:19:01;;;;;;;1.97;1.87;;;10.60;99.90;;;;;;500395;238;28941;-68
2021/05/15 09:21:02;;;;;;;2.30;2.20;;;10.50;99.90;;;;;;500390;238;28492;-68
2021/05/15 09:23:04;;;;;;;2.00;1.90;;;10.50;99.90;;;;;;500391;238;28052;-70
2021/05/15 09:25:05;;;;;;;2.00;1.70;;;10.50;99.90;;;;;;500408;238;28166;-69
2021/05/15 09:27:06;;;;;;;1.70;1.60;;;10.50;99.90;;;;;;500368;238;28363;-70
2021/05/15 09:29:07;;;;;;;2.13;2.03;;;10.60;99.90;;;;;;500379;238;28193;-69
2021/05/15 09:31:10;;;;;;;2.10;2.00;;;;;;;;;;500389;238;28151;-70
2021/05/15 09:33:11;;;;;;;11.30;2.17;;;11.00;99.90;;;;;;500390;238;27590;-68
2021/05/15 09:35:12;;;;;;;3.13;2.40;;;11.20;99.90;;;;;;500392;238;28385;-69
2021/05/15 09:37:14;;;;;;;2.37;2.20;;;11.20;99.90;;;;;;500400;238;28299;-69
2021/05/15 09:39:15;;;;;;;2.67;2.27;;;11.20;99.90;;;;;;500403;238;28460;-69
2021/05/15 09:41:16;;;;;;;2.87;2.20;;;11.10;99.90;;;;;;500406;238;28407;-68
2021/05/15 09:43:17;;;;;;;2.40;2.00;;;11.30;99.90;;;;;;500400;238;28375;-69
2021/05/15 09:45:19;;;;;;;4.73;2.57;;;11.50;99.90;;;;;;500393;238;28286;-70
2021/05/15 09:47:20;;;;;;;2.97;2.77;;;11.70;99.90;;;;;;500308;238;28307;-69
2021/05/15 09:49:21;;;;;;;2.83;2.63;;;12.00;99.90;;;;;;500382;238;28906;-69
2021/05/15 09:51:22;;;;;;;3.30;3.00;;;12.10;99.90;;;;;;500401;238;29001;-70
2021/05/15 09:53:24;;;;;;;3.30;2.43;;;12.20;99.90;;;;;;500392;238;28952;-69
2021/05/15 09:55:25;;;;;;;2.77;2.50;;;12.30;99.90;;;;;;500398;238;28833;-70
2021/05/15 09:57:26;;;;;;;3.43;2.23;;;12.40;99.90;;;;;;500379;238;28192;-69
2021/05/15 09:59:27;;;;;;;4.90;2.60;;;12.60;99.90;;;;;;500377;238;28516;-68
2021/05/15 10:01:29;;;;;;;4.30;2.87;;;12.50;99.90;;;;;;500398;238;28411;-69
2021/05/15 10:03:31;;;;;;;2.90;2.70;;;12.50;99.90;;;;;;500400;238;28518;-68
2021/05/15 10:05:31;;;;;;;3.20;2.70;;;12.50;99.90;;;;;;500369;238;28262;-69
2021/05/15 10:07:33;;;;;;;5.10;2.70;;;12.60;99.90;;;;;;500376;238;28385;-68
2021/05/15 10:09:34;;;;;;;5.30;2.50;;;12.70;99.90;;;;;;500404;238;28815;-69
2021/05/15 10:11:35;;;;;;;2.50;2.33;;;12.80;99.90;;;;;;500385;238;28365;-69
2021/05/15 10:13:36;;;;;;;3.13;2.47;;;12.70;99.90;;;;;;500398;238;29242;-69
2021/05/15 10:15:37;;;;;;;4.93;2.63;;;12.90;99.90;;;;;;500393;238;29245;-70
2021/05/15 10:17:39;;;;;;;4.60;2.67;;;12.90;99.90;;;;;;500376;238;29346;-69
2021/05/15 10:19:40;;;;;;;6.50;2.60;;;12.90;99.90;;;;;;500395;238;28811;-69
2021/05/15 10:21:41;;;;;;;5.17;2.10;;;12.80;99.90;;;;;;500386;238;28881;-70
2021/05/15 10:23:42;;;;;;;3.10;2.33;;;12.70;99.90;;;;;;500385;238;28803;-69
2021/05/15 10:25:44;;;;;;;12.70;3.17;;;12.90;99.90;;;;;;500381;238;28805;-70
2021/05/15 10:27:45;;;;;;;3.93;2.30;;;13.00;99.90;;;;;;500367;238;28890;-68
2021/05/15 10:29:46;;;;;;;4.23;1.90;;;13.20;99.90;;;;;;500365;238;28838;-70
2021/05/15 10:31:47;;;;;;;3.40;2.20;;;13.30;99.90;;;;;;500385;238;28477;-68
2021/05/15 10:33:50;;;;;;;4.00;2.00;;;13.20;99.90;;;;;;500394;238;28875;-69
2021/05/15 10:35:50;;;;;;;2.27;2.00;;;13.10;99.90;;;;;;500352;238;29382;-69
2021/05/15 10:37:51;;;;;;;7.43;2.40;;;13.10;99.90;;;;;;500376;238;29281;-68